sensor_id;sensor_type;location;lat;lon;timestamp;P1;durP1;ratioP1;P2;durP2;ratioP2
10277;SDS011;5184;51.376;7.148;2022-10-22T00:00:11;5.97;;;3.33;;
10277;SDS011;5184;51.376;7.148;2022-10-22T00:02:37;4.67;;;3.00;;
10277;SDS011;5184;51.376;7.148;2022-10-22T00:05:04;7.63;;;3.17;;
10277;SDS011;5184;51.376;7.148;2022-10-22T00:07:31;4.00;;;3.23;;
10277;SDS011;5184;51.376;7.148;2022-10-22T00:09:57;10.33;;;3.13;;
10277;SDS011;5184;51.376;7.148;2022-10-22T00:12:24;6.43;;;3.23;;
10277;SDS011;5184;51.376;7.148;2022-10-22T00:14:51;6.87;;;3.97;;
10277;SDS011;5184;51.376;7.148;2022-10-22T00:17:18;4.63;;;3.20;;
10277;SDS011;5184;51.376;7.148;2022-10-22T00:19:44;6.77;;;3.50;;
10277;SDS011;5184;51.376;7.148;2022-10-22T00:22:12;4.90;;;3.60;;
10277;SDS011;5184;51.376;7.148;2022-10-22T00:24:39;4.03;;;3.57;;
10277;SDS011;5184;51.376;7.148;2022-10-22T00:27:06;5.87;;;3.60;;
10277;SDS011;5184;51.376;7.148;2022-10-22T00:29:32;4.20;;;3.00;;
10277;SDS011;5184;51.376;7.148;2022-10-22T00:31:59;5.27;;;3.27;;
10277;SDS011;5184;51.376;7.148;2022-10-22T00:34:25;7.37;;;3.33;;
10277;SDS011;5184;51.376;7.148;2022-10-22T00:36:52;5.67;;;3.63;;
10277;SDS011;5184;51.376;7.148;2022-10-22T00:39:20;8.33;;;4.07;;
10277;SDS011;5184;51.376;7.148;2022-10-22T00:41:47;5.90;;;3.33;;
10277;SDS011;5184;51.376;7.148;2022-10-22T00:46:52;6.10;;;4.07;;
10277;SDS011;5184;51.376;7.148;2022-10-22T00:49:19;9.70;;;4.20;;
10277;SDS011;5184;51.376;7.148;2022-10-22T00:51:46;6.80;;;3.73;;
10277;SDS011;5184;51.376;7.148;2022-10-22T00:54:12;7.33;;;3.97;;
10277;SDS011;5184;51.376;7.148;2022-10-22T00:56:39;5.87;;;4.07;;
10277;SDS011;5184;51.376;7.148;2022-10-22T00:59:05;4.87;;;3.97;;
10277;SDS011;5184;51.376;7.148;2022-10-22T01:01:33;8.10;;;4.40;;
10277;SDS011;5184;51.376;7.148;2022-10-22T01:04:00;8.67;;;4.53;;
10277;SDS011;5184;51.376;7.148;2022-10-22T01:06:28;9.30;;;4.23;;
10277;SDS011;5184;51.376;7.148;2022-10-22T01:08:58;9.90;;;4.47;;
10277;SDS011;5184;51.376;7.148;2022-10-22T01:14:11;5.73;;;3.90;;
10277;SDS011;5184;51.376;7.148;2022-10-22T01:16:59;9.70;;;4.67;;
10277;SDS011;5184;51.376;7.148;2022-10-22T01:19:46;7.90;;;4.53;;
10277;SDS011;5184;51.376;7.148;2022-10-22T01:22:18;7.40;;;4.33;;
10277;SDS011;5184;51.376;7.148;2022-10-22T01:25:23;8.13;;;4.13;;
10277;SDS011;5184;51.376;7.148;2022-10-22T01:27:38;7.07;;;4.00;;
10277;SDS011;5184;51.376;7.148;2022-10-22T01:30:06;7.20;;;4.53;;
10277;SDS011;5184;51.376;7.148;2022-10-22T01:32:35;8.40;;;4.70;;
10277;SDS011;5184;51.376;7.148;2022-10-22T01:35:02;11.03;;;4.50;;
10277;SDS011;5184;51.376;7.148;2022-10-22T01:37:28;5.30;;;4.30;;
10277;SDS011;5184;51.376;7.148;2022-10-22T01:39:55;8.13;;;4.30;;
10277;SDS011;5184;51.376;7.148;2022-10-22T01:42:21;5.70;;;4.20;;
10277;SDS011;5184;51.376;7.148;2022-10-22T01:44:47;5.77;;;4.37;;
10277;SDS011;5184;51.376;7.148;2022-10-22T01:50:16;6.63;;;4.67;;
10277;SDS011;5184;51.376;7.148;2022-10-22T01:52:45;7.00;;;4.73;;
10277;SDS011;5184;51.376;7.148;2022-10-22T01:55:18;7.50;;;4.50;;
10277;SDS011;5184;51.376;7.148;2022-10-22T01:57:48;7.27;;;4.97;;
10277;SDS011;5184;51.376;7.148;2022-10-22T02:00:28;6.83;;;4.17;;
10277;SDS011;5184;51.376;7.148;2022-10-22T02:02:59;7.43;;;4.17;;
10277;SDS011;5184;51.376;7.148;2022-10-22T02:05:29;7.20;;;4.53;;
10277;SDS011;5184;51.376;7.148;2022-10-22T02:08:00;7.07;;;4.30;;
10277;SDS011;5184;51.376;7.148;2022-10-22T02:10:26;8.57;;;4.50;;
10277;SDS011;5184;51.376;7.148;2022-10-22T02:12:53;8.13;;;4.57;;
10277;SDS011;5184;51.376;7.148;2022-10-22T02:15:19;6.33;;;4.13;;
10277;SDS011;5184;51.376;7.148;2022-10-22T02:17:46;6.50;;;4.13;;
10277;SDS011;5184;51.376;7.148;2022-10-22T02:20:15;7.57;;;4.80;;
10277;SDS011;5184;51.376;7.148;2022-10-22T02:22:41;9.03;;;4.83;;
10277;SDS011;5184;51.376;7.148;2022-10-22T02:25:09;8.97;;;5.30;;
10277;SDS011;5184;51.376;7.148;2022-10-22T02:27:40;7.30;;;4.30;;
10277;SDS011;5184;51.376;7.148;2022-10-22T02:30:11;10.57;;;5.47;;
10277;SDS011;5184;51.376;7.148;2022-10-22T02:32:38;11.93;;;5.27;;
10277;SDS011;5184;51.376;7.148;2022-10-22T02:35:16;5.40;;;4.27;;
10277;SDS011;5184;51.376;7.148;2022-10-22T02:37:41;9.20;;;4.80;;
10277;SDS011;5184;51.376;7.148;2022-10-22T02:40:08;8.63;;;5.20;;
10277;SDS011;5184;51.376;7.148;2022-10-22T02:42:35;7.10;;;5.07;;
10277;SDS011;5184;51.376;7.148;2022-10-22T02:45:01;6.27;;;5.20;;
10277;SDS011;5184;51.376;7.148;2022-10-22T02:47:29;6.20;;;4.70;;
10277;SDS011;5184;51.376;7.148;2022-10-22T02:49:57;7.30;;;4.70;;
10277;SDS011;5184;51.376;7.148;2022-10-22T02:52:24;7.90;;;5.40;;
10277;SDS011;5184;51.376;7.148;2022-10-22T02:54:51;9.70;;;4.83;;
10277;SDS011;5184;51.376;7.148;2022-10-22T02:57:17;7.87;;;4.93;;
10277;SDS011;5184;51.376;7.148;2022-10-22T02:59:44;7.33;;;4.50;;
10277;SDS011;5184;51.376;7.148;2022-10-22T03:02:11;7.47;;;4.93;;
10277;SDS011;5184;51.376;7.148;2022-10-22T03:04:37;6.70;;;4.30;;
10277;SDS011;5184;51.376;7.148;2022-10-22T03:07:04;6.97;;;4.90;;
10277;SDS011;5184;51.376;7.148;2022-10-22T03:09:30;6.47;;;4.57;;
10277;SDS011;5184;51.376;7.148;2022-10-22T03:11:58;6.93;;;4.47;;
10277;SDS011;5184;51.376;7.148;2022-10-22T03:14:25;8.87;;;5.17;;
10277;SDS011;5184;51.376;7.148;2022-10-22T03:16:52;7.67;;;5.60;;
10277;SDS011;5184;51.376;7.148;2022-10-22T03:19:18;6.73;;;5.30;;
10277;SDS011;5184;51.376;7.148;2022-10-22T03:21:56;9.37;;;5.47;;
10277;SDS011;5184;51.376;7.148;2022-10-22T03:24:24;10.30;;;5.67;;
10277;SDS011;5184;51.376;7.148;2022-10-22T03:27:05;5.63;;;4.70;;
10277;SDS011;5184;51.376;7.148;2022-10-22T03:29:32;8.77;;;5.00;;
10277;SDS011;5184;51.376;7.148;2022-10-22T03:31:59;6.77;;;4.80;;
10277;SDS011;5184;51.376;7.148;2022-10-22T03:34:26;10.77;;;5.57;;
10277;SDS011;5184;51.376;7.148;2022-10-22T03:36:53;11.03;;;5.87;;
10277;SDS011;5184;51.376;7.148;2022-10-22T03:39:19;7.27;;;5.57;;
10277;SDS011;5184;51.376;7.148;2022-10-22T03:41:46;13.57;;;6.00;;
10277;SDS011;5184;51.376;7.148;2022-10-22T03:44:13;6.77;;;5.10;;
10277;SDS011;5184;51.376;7.148;2022-10-22T03:46:39;7.83;;;6.00;;
10277;SDS011;5184;51.376;7.148;2022-10-22T03:49:06;7.63;;;5.70;;
10277;SDS011;5184;51.376;7.148;2022-10-22T03:51:33;10.37;;;6.10;;
10277;SDS011;5184;51.376;7.148;2022-10-22T03:54:00;9.00;;;5.40;;
10277;SDS011;5184;51.376;7.148;2022-10-22T03:56:26;8.87;;;6.30;;
10277;SDS011;5184;51.376;7.148;2022-10-22T03:58:55;11.13;;;6.40;;
10277;SDS011;5184;51.376;7.148;2022-10-22T04:01:20;9.77;;;6.30;;
10277;SDS011;5184;51.376;7.148;2022-10-22T04:03:47;8.73;;;6.10;;
10277;SDS011;5184;51.376;7.148;2022-10-22T04:06:13;9.43;;;6.00;;
10277;SDS011;5184;51.376;7.148;2022-10-22T04:08:41;9.57;;;6.60;;
10277;SDS011;5184;51.376;7.148;2022-10-22T04:11:07;10.47;;;6.40;;
10277;SDS011;5184;51.376;7.148;2022-10-22T04:13:33;8.10;;;6.20;;
10277;SDS011;5184;51.376;7.148;2022-10-22T04:16:10;12.30;;;6.57;;
10277;SDS011;5184;51.376;7.148;2022-10-22T04:18:37;8.10;;;6.43;;
10277;SDS011;5184;51.376;7.148;2022-10-22T04:21:04;10.77;;;5.93;;
10277;SDS011;5184;51.376;7.148;2022-10-22T04:23:31;7.53;;;6.03;;
10277;SDS011;5184;51.376;7.148;2022-10-22T04:25:59;11.00;;;5.73;;
10277;SDS011;5184;51.376;7.148;2022-10-22T04:28:25;8.67;;;6.47;;
10277;SDS011;5184;51.376;7.148;2022-10-22T04:30:52;10.80;;;6.80;;
10277;SDS011;5184;51.376;7.148;2022-10-22T04:33:19;8.53;;;6.03;;
10277;SDS011;5184;51.376;7.148;2022-10-22T04:35:47;8.97;;;6.47;;
10277;SDS011;5184;51.376;7.148;2022-10-22T04:38:14;10.57;;;6.33;;
10277;SDS011;5184;51.376;7.148;2022-10-22T04:40:41;10.27;;;6.83;;
10277;SDS011;5184;51.376;7.148;2022-10-22T04:43:08;8.23;;;6.53;;
10277;SDS011;5184;51.376;7.148;2022-10-22T04:45:35;10.73;;;6.80;;
10277;SDS011;5184;51.376;7.148;2022-10-22T04:48:02;11.73;;;7.13;;
10277;SDS011;5184;51.376;7.148;2022-10-22T04:50:29;9.10;;;6.90;;
10277;SDS011;5184;51.376;7.148;2022-10-22T04:52:55;13.50;;;7.50;;
10277;SDS011;5184;51.376;7.148;2022-10-22T04:55:22;8.17;;;7.00;;
10277;SDS011;5184;51.376;7.148;2022-10-22T04:57:48;13.07;;;7.37;;
10277;SDS011;5184;51.376;7.148;2022-10-22T05:00:15;13.07;;;6.83;;
10277;SDS011;5184;51.376;7.148;2022-10-22T05:02:42;11.67;;;7.50;;
10277;SDS011;5184;51.376;7.148;2022-10-22T05:05:08;12.47;;;6.93;;
10277;SDS011;5184;51.376;7.148;2022-10-22T05:07:35;10.73;;;7.00;;
10277;SDS011;5184;51.376;7.148;2022-10-22T05:10:02;10.67;;;7.03;;
10277;SDS011;5184;51.376;7.148;2022-10-22T05:12:30;15.43;;;8.57;;
10277;SDS011;5184;51.376;7.148;2022-10-22T05:14:56;13.30;;;6.97;;
10277;SDS011;5184;51.376;7.148;2022-10-22T05:17:23;10.67;;;7.70;;
10277;SDS011;5184;51.376;7.148;2022-10-22T05:19:50;10.83;;;7.50;;
10277;SDS011;5184;51.376;7.148;2022-10-22T05:22:17;10.60;;;7.63;;
10277;SDS011;5184;51.376;7.148;2022-10-22T05:24:44;8.97;;;7.07;;
10277;SDS011;5184;51.376;7.148;2022-10-22T05:27:11;11.40;;;7.50;;
10277;SDS011;5184;51.376;7.148;2022-10-22T05:29:38;11.10;;;7.20;;
10277;SDS011;5184;51.376;7.148;2022-10-22T05:32:05;11.40;;;7.80;;
10277;SDS011;5184;51.376;7.148;2022-10-22T05:34:31;11.37;;;8.80;;
10277;SDS011;5184;51.376;7.148;2022-10-22T05:36:58;14.97;;;9.40;;
10277;SDS011;5184;51.376;7.148;2022-10-22T05:39:25;11.77;;;7.70;;
10277;SDS011;5184;51.376;7.148;2022-10-22T05:41:51;11.47;;;7.80;;
10277;SDS011;5184;51.376;7.148;2022-10-22T05:44:19;10.33;;;7.13;;
10277;SDS011;5184;51.376;7.148;2022-10-22T05:46:45;12.70;;;7.70;;
10277;SDS011;5184;51.376;7.148;2022-10-22T05:49:13;11.07;;;7.63;;
10277;SDS011;5184;51.376;7.148;2022-10-22T05:51:38;11.43;;;7.40;;
10277;SDS011;5184;51.376;7.148;2022-10-22T05:54:06;9.80;;;7.10;;
10277;SDS011;5184;51.376;7.148;2022-10-22T05:56:32;10.97;;;7.37;;
10277;SDS011;5184;51.376;7.148;2022-10-22T05:58:59;9.47;;;7.50;;
10277;SDS011;5184;51.376;7.148;2022-10-22T06:01:27;14.07;;;7.73;;
10277;SDS011;5184;51.376;7.148;2022-10-22T06:03:54;8.47;;;7.33;;
10277;SDS011;5184;51.376;7.148;2022-10-22T06:06:21;8.70;;;7.30;;
10277;SDS011;5184;51.376;7.148;2022-10-22T06:08:51;9.07;;;7.63;;
10277;SDS011;5184;51.376;7.148;2022-10-22T06:11:18;15.30;;;7.50;;
10277;SDS011;5184;51.376;7.148;2022-10-22T06:13:44;9.07;;;7.40;;
10277;SDS011;5184;51.376;7.148;2022-10-22T06:16:11;9.03;;;7.17;;
10277;SDS011;5184;51.376;7.148;2022-10-22T06:18:38;13.50;;;7.83;;
10277;SDS011;5184;51.376;7.148;2022-10-22T06:21:06;10.47;;;7.90;;
10277;SDS011;5184;51.376;7.148;2022-10-22T06:23:32;12.87;;;7.73;;
10277;SDS011;5184;51.376;7.148;2022-10-22T06:25:59;10.60;;;7.67;;
10277;SDS011;5184;51.376;7.148;2022-10-22T06:28:26;11.03;;;8.43;;
10277;SDS011;5184;51.376;7.148;2022-10-22T06:30:53;10.87;;;7.93;;
10277;SDS011;5184;51.376;7.148;2022-10-22T06:33:20;10.20;;;7.83;;
10277;SDS011;5184;51.376;7.148;2022-10-22T06:35:47;10.23;;;7.50;;
10277;SDS011;5184;51.376;7.148;2022-10-22T06:38:14;11.20;;;7.73;;
10277;SDS011;5184;51.376;7.148;2022-10-22T06:40:40;10.70;;;7.60;;
10277;SDS011;5184;51.376;7.148;2022-10-22T06:43:08;11.30;;;7.70;;
10277;SDS011;5184;51.376;7.148;2022-10-22T06:45:34;9.77;;;7.40;;
10277;SDS011;5184;51.376;7.148;2022-10-22T06:48:01;12.20;;;6.97;;
10277;SDS011;5184;51.376;7.148;2022-10-22T06:50:28;8.97;;;6.77;;
10277;SDS011;5184;51.376;7.148;2022-10-22T06:52:56;8.70;;;7.13;;
10277;SDS011;5184;51.376;7.148;2022-10-22T06:55:22;13.77;;;7.10;;
10277;SDS011;5184;51.376;7.148;2022-10-22T06:57:49;12.40;;;7.20;;
10277;SDS011;5184;51.376;7.148;2022-10-22T07:00:15;8.87;;;6.40;;
10277;SDS011;5184;51.376;7.148;2022-10-22T07:02:42;9.83;;;7.27;;
10277;SDS011;5184;51.376;7.148;2022-10-22T07:05:09;11.73;;;6.37;;
10277;SDS011;5184;51.376;7.148;2022-10-22T07:07:35;7.80;;;5.90;;
10277;SDS011;5184;51.376;7.148;2022-10-22T07:10:03;8.33;;;6.50;;
10277;SDS011;5184;51.376;7.148;2022-10-22T07:12:29;11.90;;;5.40;;
10277;SDS011;5184;51.376;7.148;2022-10-22T07:14:56;8.10;;;6.23;;
10277;SDS011;5184;51.376;7.148;2022-10-22T07:17:23;9.17;;;6.23;;
10277;SDS011;5184;51.376;7.148;2022-10-22T07:19:49;11.77;;;6.67;;
10277;SDS011;5184;51.376;7.148;2022-10-22T07:22:17;9.00;;;6.07;;
10277;SDS011;5184;51.376;7.148;2022-10-22T07:24:43;9.80;;;6.07;;
10277;SDS011;5184;51.376;7.148;2022-10-22T07:27:11;10.00;;;5.33;;
10277;SDS011;5184;51.376;7.148;2022-10-22T07:29:38;8.93;;;5.80;;
10277;SDS011;5184;51.376;7.148;2022-10-22T07:32:05;12.40;;;6.43;;
10277;SDS011;5184;51.376;7.148;2022-10-22T07:34:32;9.07;;;6.10;;
10277;SDS011;5184;51.376;7.148;2022-10-22T07:36:59;9.93;;;6.20;;
10277;SDS011;5184;51.376;7.148;2022-10-22T07:39:26;8.87;;;5.47;;
10277;SDS011;5184;51.376;7.148;2022-10-22T07:41:52;9.87;;;4.93;;
10277;SDS011;5184;51.376;7.148;2022-10-22T07:44:19;8.33;;;5.73;;
10277;SDS011;5184;51.376;7.148;2022-10-22T07:46:45;7.33;;;5.33;;
10277;SDS011;5184;51.376;7.148;2022-10-22T07:49:12;11.03;;;6.20;;
10277;SDS011;5184;51.376;7.148;2022-10-22T07:51:39;6.43;;;4.83;;
10277;SDS011;5184;51.376;7.148;2022-10-22T07:54:05;8.90;;;5.43;;
10277;SDS011;5184;51.376;7.148;2022-10-22T07:56:32;11.50;;;5.40;;
10277;SDS011;5184;51.376;7.148;2022-10-22T07:58:59;10.47;;;5.00;;
10277;SDS011;5184;51.376;7.148;2022-10-22T08:01:26;8.93;;;4.63;;
10277;SDS011;5184;51.376;7.148;2022-10-22T08:03:52;7.33;;;4.20;;
10277;SDS011;5184;51.376;7.148;2022-10-22T08:06:20;11.03;;;4.17;;
10277;SDS011;5184;51.376;7.148;2022-10-22T08:08:46;9.43;;;3.83;;
10277;SDS011;5184;51.376;7.148;2022-10-22T08:11:13;6.70;;;3.90;;
10277;SDS011;5184;51.376;7.148;2022-10-22T08:13:39;7.57;;;3.63;;
10277;SDS011;5184;51.376;7.148;2022-10-22T08:16:07;7.33;;;3.37;;
10277;SDS011;5184;51.376;7.148;2022-10-22T08:18:34;7.40;;;3.87;;
10277;SDS011;5184;51.376;7.148;2022-10-22T08:21:01;8.53;;;3.30;;
10277;SDS011;5184;51.376;7.148;2022-10-22T08:23:28;5.50;;;3.00;;
10277;SDS011;5184;51.376;7.148;2022-10-22T08:25:56;5.27;;;3.10;;
10277;SDS011;5184;51.376;7.148;2022-10-22T08:28:22;6.30;;;2.77;;
10277;SDS011;5184;51.376;7.148;2022-10-22T08:30:49;5.93;;;2.50;;
10277;SDS011;5184;51.376;7.148;2022-10-22T08:33:15;4.57;;;2.80;;
10277;SDS011;5184;51.376;7.148;2022-10-22T08:35:46;6.70;;;3.00;;
10277;SDS011;5184;51.376;7.148;2022-10-22T08:38:13;8.67;;;2.90;;
10277;SDS011;5184;51.376;7.148;2022-10-22T08:40:40;6.10;;;3.20;;
10277;SDS011;5184;51.376;7.148;2022-10-22T08:45:55;6.80;;;2.83;;
10277;SDS011;5184;51.376;7.148;2022-10-22T08:48:38;7.37;;;2.63;;
10277;SDS011;5184;51.376;7.148;2022-10-22T08:51:01;6.10;;;2.60;;
10277;SDS011;5184;51.376;7.148;2022-10-22T08:53:33;6.03;;;2.50;;
10277;SDS011;5184;51.376;7.148;2022-10-22T08:55:57;6.33;;;2.70;;
10277;SDS011;5184;51.376;7.148;2022-10-22T08:58:31;7.07;;;2.90;;
10277;SDS011;5184;51.376;7.148;2022-10-22T09:01:14;7.70;;;3.37;;
10277;SDS011;5184;51.376;7.148;2022-10-22T09:03:44;7.13;;;2.93;;
10277;SDS011;5184;51.376;7.148;2022-10-22T09:06:11;4.70;;;2.50;;
10277;SDS011;5184;51.376;7.148;2022-10-22T09:08:38;6.93;;;2.87;;
10277;SDS011;5184;51.376;7.148;2022-10-22T09:11:15;5.37;;;2.30;;
10277;SDS011;5184;51.376;7.148;2022-10-22T09:13:51;6.00;;;2.67;;
10277;SDS011;5184;51.376;7.148;2022-10-22T09:16:20;5.97;;;2.80;;
10277;SDS011;5184;51.376;7.148;2022-10-22T09:18:54;7.47;;;2.90;;
10277;SDS011;5184;51.376;7.148;2022-10-22T09:21:26;7.00;;;2.70;;
10277;SDS011;5184;51.376;7.148;2022-10-22T09:24:02;5.37;;;2.57;;
10277;SDS011;5184;51.376;7.148;2022-10-22T09:26:32;5.43;;;2.83;;
10277;SDS011;5184;51.376;7.148;2022-10-22T09:28:58;8.27;;;2.67;;
10277;SDS011;5184;51.376;7.148;2022-10-22T09:31:25;5.47;;;2.70;;
10277;SDS011;5184;51.376;7.148;2022-10-22T09:33:50;8.47;;;2.90;;
10277;SDS011;5184;51.376;7.148;2022-10-22T09:36:19;5.90;;;2.53;;
10277;SDS011;5184;51.376;7.148;2022-10-22T09:38:44;5.27;;;2.73;;
10277;SDS011;5184;51.376;7.148;2022-10-22T09:41:10;7.17;;;3.00;;
10277;SDS011;5184;51.376;7.148;2022-10-22T09:43:36;7.60;;;2.77;;
10277;SDS011;5184;51.376;7.148;2022-10-22T09:46:04;6.57;;;2.57;;
10277;SDS011;5184;51.376;7.148;2022-10-22T09:48:32;6.07;;;2.73;;
10277;SDS011;5184;51.376;7.148;2022-10-22T09:51:03;7.97;;;2.90;;
10277;SDS011;5184;51.376;7.148;2022-10-22T09:53:31;7.37;;;2.60;;
10277;SDS011;5184;51.376;7.148;2022-10-22T09:55:58;4.13;;;2.53;;
10277;SDS011;5184;51.376;7.148;2022-10-22T09:58:24;6.87;;;2.70;;
10277;SDS011;5184;51.376;7.148;2022-10-22T10:00:51;7.27;;;2.70;;
10277;SDS011;5184;51.376;7.148;2022-10-22T10:03:21;6.17;;;2.53;;
10277;SDS011;5184;51.376;7.148;2022-10-22T10:05:48;7.00;;;2.57;;
10277;SDS011;5184;51.376;7.148;2022-10-22T10:08:14;6.97;;;2.50;;
10277;SDS011;5184;51.376;7.148;2022-10-22T10:10:42;5.77;;;2.70;;
10277;SDS011;5184;51.376;7.148;2022-10-22T10:13:17;4.27;;;2.43;;
10277;SDS011;5184;51.376;7.148;2022-10-22T10:15:49;6.80;;;2.60;;
10277;SDS011;5184;51.376;7.148;2022-10-22T10:20:57;5.57;;;2.60;;
10277;SDS011;5184;51.376;7.148;2022-10-22T10:23:28;8.80;;;2.77;;
10277;SDS011;5184;51.376;7.148;2022-10-22T10:26:04;4.37;;;2.03;;
10277;SDS011;5184;51.376;7.148;2022-10-22T10:28:40;6.67;;;2.40;;
10277;SDS011;5184;51.376;7.148;2022-10-22T10:31:13;7.53;;;2.60;;
10277;SDS011;5184;51.376;7.148;2022-10-22T10:33:51;5.90;;;2.20;;
10277;SDS011;5184;51.376;7.148;2022-10-22T10:36:26;6.60;;;2.40;;
10277;SDS011;5184;51.376;7.148;2022-10-22T10:38:55;7.00;;;2.30;;
10277;SDS011;5184;51.376;7.148;2022-10-22T10:41:26;4.40;;;2.07;;
10277;SDS011;5184;51.376;7.148;2022-10-22T10:43:58;5.70;;;2.37;;
10277;SDS011;5184;51.376;7.148;2022-10-22T10:49:08;6.27;;;2.30;;
10277;SDS011;5184;51.376;7.148;2022-10-22T10:51:37;7.23;;;2.43;;
10277;SDS011;5184;51.376;7.148;2022-10-22T10:54:16;6.47;;;2.17;;
10277;SDS011;5184;51.376;7.148;2022-10-22T10:56:46;4.63;;;2.33;;
10277;SDS011;5184;51.376;7.148;2022-10-22T10:59:15;10.20;;;2.40;;
10277;SDS011;5184;51.376;7.148;2022-10-22T11:04:41;9.50;;;2.73;;
10277;SDS011;5184;51.376;7.148;2022-10-22T11:07:21;6.07;;;1.90;;
10277;SDS011;5184;51.376;7.148;2022-10-22T11:09:49;5.27;;;2.10;;
10277;SDS011;5184;51.376;7.148;2022-10-22T11:12:16;3.90;;;1.70;;
10277;SDS011;5184;51.376;7.148;2022-10-22T11:14:45;7.57;;;2.60;;
10277;SDS011;5184;51.376;7.148;2022-10-22T11:17:11;5.83;;;1.83;;
10277;SDS011;5184;51.376;7.148;2022-10-22T11:19:40;4.83;;;2.03;;
10277;SDS011;5184;51.376;7.148;2022-10-22T11:22:16;4.97;;;1.70;;
10277;SDS011;5184;51.376;7.148;2022-10-22T11:24:44;5.40;;;2.10;;
10277;SDS011;5184;51.376;7.148;2022-10-22T11:27:10;6.23;;;2.23;;
10277;SDS011;5184;51.376;7.148;2022-10-22T11:29:45;5.07;;;2.20;;
10277;SDS011;5184;51.376;7.148;2022-10-22T11:32:11;4.87;;;1.80;;
10277;SDS011;5184;51.376;7.148;2022-10-22T11:34:39;4.63;;;1.67;;
10277;SDS011;5184;51.376;7.148;2022-10-22T11:37:13;5.47;;;1.77;;
10277;SDS011;5184;51.376;7.148;2022-10-22T11:39:42;5.73;;;1.67;;
10277;SDS011;5184;51.376;7.148;2022-10-22T11:42:10;5.80;;;1.70;;
10277;SDS011;5184;51.376;7.148;2022-10-22T11:47:25;2.60;;;1.23;;
10277;SDS011;5184;51.376;7.148;2022-10-22T11:49:58;4.27;;;1.67;;
10277;SDS011;5184;51.376;7.148;2022-10-22T11:52:25;5.30;;;1.60;;
10277;SDS011;5184;51.376;7.148;2022-10-22T11:57:43;4.93;;;1.70;;
10277;SDS011;5184;51.376;7.148;2022-10-22T12:00:20;4.17;;;1.33;;
10277;SDS011;5184;51.376;7.148;2022-10-22T12:02:37;5.40;;;1.43;;
10277;SDS011;5184;51.376;7.148;2022-10-22T12:07:49;7.10;;;1.73;;
10277;SDS011;5184;51.376;7.148;2022-10-22T12:10:19;5.80;;;1.60;;
10277;SDS011;5184;51.376;7.148;2022-10-22T12:12:44;4.97;;;1.70;;
10277;SDS011;5184;51.376;7.148;2022-10-22T12:15:20;4.83;;;1.67;;
10277;SDS011;5184;51.376;7.148;2022-10-22T12:17:42;5.27;;;1.60;;
10277;SDS011;5184;51.376;7.148;2022-10-22T12:20:11;2.47;;;1.30;;
10277;SDS011;5184;51.376;7.148;2022-10-22T12:22:38;4.27;;;1.47;;
10277;SDS011;5184;51.376;7.148;2022-10-22T12:25:11;4.23;;;1.47;;
10277;SDS011;5184;51.376;7.148;2022-10-22T12:27:36;3.80;;;1.43;;
10277;SDS011;5184;51.376;7.148;2022-10-22T12:32:41;4.83;;;1.60;;
10277;SDS011;5184;51.376;7.148;2022-10-22T12:35:14;4.80;;;1.60;;
10277;SDS011;5184;51.376;7.148;2022-10-22T12:37:36;5.97;;;1.80;;
10277;SDS011;5184;51.376;7.148;2022-10-22T12:42:54;2.83;;;1.50;;
10277;SDS011;5184;51.376;7.148;2022-10-22T12:45:21;5.93;;;1.50;;
10277;SDS011;5184;51.376;7.148;2022-10-22T12:47:50;4.83;;;1.37;;
10277;SDS011;5184;51.376;7.148;2022-10-22T12:50:17;4.20;;;1.90;;
10277;SDS011;5184;51.376;7.148;2022-10-22T12:52:44;5.37;;;1.60;;
10277;SDS011;5184;51.376;7.148;2022-10-22T12:55:15;5.03;;;1.70;;
10277;SDS011;5184;51.376;7.148;2022-10-22T12:57:40;4.27;;;2.30;;
10277;SDS011;5184;51.376;7.148;2022-10-22T13:00:18;4.73;;;1.70;;
10277;SDS011;5184;51.376;7.148;2022-10-22T13:02:48;3.20;;;1.50;;
10277;SDS011;5184;51.376;7.148;2022-10-22T13:05:20;3.97;;;1.80;;
10277;SDS011;5184;51.376;7.148;2022-10-22T13:08:01;2.63;;;1.10;;
10277;SDS011;5184;51.376;7.148;2022-10-22T13:10:31;4.13;;;1.50;;
10277;SDS011;5184;51.376;7.148;2022-10-22T13:12:57;2.43;;;1.37;;
10277;SDS011;5184;51.376;7.148;2022-10-22T13:15:34;6.37;;;1.70;;
10277;SDS011;5184;51.376;7.148;2022-10-22T13:18:05;3.73;;;1.50;;
10277;SDS011;5184;51.376;7.148;2022-10-22T13:20:35;5.47;;;1.80;;
10277;SDS011;5184;51.376;7.148;2022-10-22T13:23:03;4.73;;;1.30;;
10277;SDS011;5184;51.376;7.148;2022-10-22T13:25:30;3.47;;;1.50;;
10277;SDS011;5184;51.376;7.148;2022-10-22T13:28:00;3.47;;;1.30;;
10277;SDS011;5184;51.376;7.148;2022-10-22T13:30:27;3.77;;;1.30;;
10277;SDS011;5184;51.376;7.148;2022-10-22T13:32:53;2.87;;;1.40;;
10277;SDS011;5184;51.376;7.148;2022-10-22T13:35:21;4.73;;;1.43;;
10277;SDS011;5184;51.376;7.148;2022-10-22T13:37:46;2.77;;;1.30;;
10277;SDS011;5184;51.376;7.148;2022-10-22T13:40:13;5.10;;;1.63;;
10277;SDS011;5184;51.376;7.148;2022-10-22T13:42:40;3.70;;;1.40;;
10277;SDS011;5184;51.376;7.148;2022-10-22T13:45:06;5.27;;;1.60;;
10277;SDS011;5184;51.376;7.148;2022-10-22T13:47:33;2.03;;;1.27;;
10277;SDS011;5184;51.376;7.148;2022-10-22T13:50:01;5.80;;;1.53;;
10277;SDS011;5184;51.376;7.148;2022-10-22T13:52:30;4.07;;;1.30;;
10277;SDS011;5184;51.376;7.148;2022-10-22T13:54:56;5.50;;;1.40;;
10277;SDS011;5184;51.376;7.148;2022-10-22T13:57:23;3.10;;;1.43;;
10277;SDS011;5184;51.376;7.148;2022-10-22T13:59:49;5.17;;;1.40;;
10277;SDS011;5184;51.376;7.148;2022-10-22T14:02:16;2.70;;;1.20;;
10277;SDS011;5184;51.376;7.148;2022-10-22T14:04:43;2.30;;;1.00;;
10277;SDS011;5184;51.376;7.148;2022-10-22T14:07:11;3.43;;;1.33;;
10277;SDS011;5184;51.376;7.148;2022-10-22T14:09:38;3.53;;;1.20;;
10277;SDS011;5184;51.376;7.148;2022-10-22T14:12:11;1.20;;;1.10;;
10277;SDS011;5184;51.376;7.148;2022-10-22T14:14:37;2.47;;;1.10;;
10277;SDS011;5184;51.376;7.148;2022-10-22T14:19:25;2.07;;;1.00;;
10277;SDS011;5184;51.376;7.148;2022-10-22T14:21:52;5.57;;;1.40;;
10277;SDS011;5184;51.376;7.148;2022-10-22T14:24:18;2.80;;;1.27;;
10277;SDS011;5184;51.376;7.148;2022-10-22T14:26:45;4.40;;;1.57;;
10277;SDS011;5184;51.376;7.148;2022-10-22T14:29:11;4.03;;;1.53;;
10277;SDS011;5184;51.376;7.148;2022-10-22T14:31:38;5.17;;;1.50;;
10277;SDS011;5184;51.376;7.148;2022-10-22T14:34:05;4.03;;;1.30;;
10277;SDS011;5184;51.376;7.148;2022-10-22T14:36:33;2.53;;;1.50;;
10277;SDS011;5184;51.376;7.148;2022-10-22T14:39:00;2.90;;;1.37;;
10277;SDS011;5184;51.376;7.148;2022-10-22T14:41:27;2.87;;;1.20;;
10277;SDS011;5184;51.376;7.148;2022-10-22T14:43:55;4.40;;;1.20;;
10277;SDS011;5184;51.376;7.148;2022-10-22T14:46:22;3.17;;;1.40;;
10277;SDS011;5184;51.376;7.148;2022-10-22T14:48:49;4.57;;;1.57;;
10277;SDS011;5184;51.376;7.148;2022-10-22T14:51:16;2.37;;;1.20;;
10277;SDS011;5184;51.376;7.148;2022-10-22T14:53:42;3.73;;;1.00;;
10277;SDS011;5184;51.376;7.148;2022-10-22T14:56:11;2.60;;;1.10;;
10277;SDS011;5184;51.376;7.148;2022-10-22T14:58:37;4.03;;;1.47;;
10277;SDS011;5184;51.376;7.148;2022-10-22T15:01:03;4.20;;;1.30;;
10277;SDS011;5184;51.376;7.148;2022-10-22T15:03:31;2.67;;;1.20;;
10277;SDS011;5184;51.376;7.148;2022-10-22T15:05:58;5.73;;;1.37;;
10277;SDS011;5184;51.376;7.148;2022-10-22T15:08:26;3.90;;;1.37;;
10277;SDS011;5184;51.376;7.148;2022-10-22T15:11:00;2.13;;;1.10;;
10277;SDS011;5184;51.376;7.148;2022-10-22T15:13:26;4.93;;;1.20;;
10277;SDS011;5184;51.376;7.148;2022-10-22T15:15:53;3.63;;;1.03;;
10277;SDS011;5184;51.376;7.148;2022-10-22T15:18:20;2.53;;;1.20;;
10277;SDS011;5184;51.376;7.148;2022-10-22T15:23:23;5.10;;;1.33;;
10277;SDS011;5184;51.376;7.148;2022-10-22T15:25:50;2.27;;;1.30;;
10277;SDS011;5184;51.376;7.148;2022-10-22T15:28:17;2.30;;;1.73;;
10277;SDS011;5184;51.376;7.148;2022-10-22T15:30:50;2.33;;;1.40;;
10277;SDS011;5184;51.376;7.148;2022-10-22T15:33:20;3.97;;;1.70;;
10277;SDS011;5184;51.376;7.148;2022-10-22T15:35:47;5.30;;;1.70;;
10277;SDS011;5184;51.376;7.148;2022-10-22T15:38:15;4.70;;;1.50;;
10277;SDS011;5184;51.376;7.148;2022-10-22T15:40:42;2.70;;;1.30;;